Lafayette, LA (70501)

3:25 AM CDT on August 22, 2014 (GMT -0500)
River Ranch Subdivision | Change Station
CLOSE
Current Station
Personal Weather Station
Location: Lafayette, LA
Elevation: 31 ft
Nearby Weather Stations

Elev 31 ft 30.17 °N, 92.04 °W | Updated 4 seconds ago

Clear
Clear
75.2 °F
Feels Like 74 °F
N
0.0
Wind Variable Wind from WSW
Gusts 0.0 mph

Today
High -- | Low -- °F
--% Chance of Precip.
Yesterday
High -- | Low -- °F
Precip. -- in
6:39 AM 7:42 PM
Waning Crescent, 9% visible
Pressure 30.07 in
Visibility 10.0 miles
Clouds Clear
Heat Index 74 °F
Dew Point 73 °F
Humidity 93%
Rainfall 0.00 in
Snow Depth Not available.
UV 0.0 out of 12
Pollen 7.60 out of 12
Air Quality Not available.
Flu Activity Not available.
METAR KLFT 220753Z AUTO 00000KT 10SM CLR 24/23 A3007 RMK AO2 SLP183 T02440233

More Conditions Fewer Conditions

Pressure 30.07 in
Visibility 10.0 miles
Clouds Clear
Heat Index 74 °F
Dew Point 73 °F
Humidity 93%
Rainfall 0.00 in
Snow Depth Not available.
UV 0.0 out of 12
Pollen 7.60 out of 12
Air Quality Not available.
Flu Activity Not available.
METAR KLFT 220753Z AUTO 00000KT 10SM CLR 24/23 A3007 RMK AO2 SLP183 T02440233

More Conditions Fewer Conditions

10-Day Weather Forecast

Almanac

Astronomy

Aug. 22, 2014 Rise Set
Actual Time 6:39 AM CDT 7:42 PM CDT
Civil Twilight 6:14 AM CDT 8:06 PM CDT
Nautical Twilight 5:44 AM CDT 8:36 PM CDT
Astronomical Twilight 5:14 AM CDT 9:06 PM CDT
Moon 4:07 AM CDT 5:47 PM CDT
Length of Visible Light 13h 52m
Length of Day
13h 02m
Tomorrow will be 1m 40s shorter.
Waning Crescent, 9% of the Moon is Illuminated
Today
Waning Crescent
Aug 25
New
Sep 2
First Quarter
Sep 8
Full
Sep 15
Last Quarter

Community

WunderPhotos

Upload Photos

1,746,144 photos uploaded!

Nearby

Snow Depth

Station Depth Elevation
No new snow has been reported.

Earthquake Activity

City Distance Mag. Time & Date
No recent earthquake activity has been reported nearby.
Minimum magnitude displayed is 2.5.

Coastal Water Temperatures

Place Temperature
Fresh Water Canal Locks, LA 88.0 °F
Amerada Pass, LA 84.9 °F

Nearby Weather Stations